createdAt,value
2019-01-24T00:00:42.444Z,949.12
2019-01-24T00:01:42.433Z,949.19
2019-01-24T00:02:42.454Z,949.18
2019-01-24T00:03:42.426Z,949.20
2019-01-24T00:04:42.406Z,949.17
2019-01-24T00:05:42.423Z,949.25
2019-01-24T00:06:42.376Z,949.23
2019-01-24T00:07:42.370Z,949.20
2019-01-24T00:08:42.377Z,949.18
2019-01-24T00:09:42.353Z,949.24
2019-01-24T00:10:42.333Z,949.26
2019-01-24T00:11:42.331Z,949.29
2019-01-24T00:12:42.320Z,949.25
2019-01-24T00:13:42.300Z,949.27
2019-01-24T00:14:42.317Z,949.31
2019-01-24T00:15:42.278Z,949.34
2019-01-24T00:16:42.283Z,949.35
2019-01-24T00:17:42.265Z,949.39
2019-01-24T00:18:42.244Z,949.38
2019-01-24T00:19:42.234Z,949.35
2019-01-24T00:20:42.248Z,949.42
2019-01-24T00:21:42.221Z,949.39
2019-01-24T00:22:42.202Z,949.43
2019-01-24T00:23:42.199Z,949.43
2019-01-24T00:24:42.184Z,949.42
2019-01-24T00:25:42.170Z,949.49
2019-01-24T00:26:42.189Z,949.48
2019-01-24T00:27:42.156Z,949.46
2019-01-24T00:28:42.140Z,949.44
2019-01-24T00:29:42.129Z,949.47
2019-01-24T00:30:42.117Z,949.47
2019-01-24T00:31:42.141Z,949.47
2019-01-24T00:32:42.123Z,949.50
2019-01-24T00:33:42.089Z,949.47
2019-01-24T00:34:42.074Z,949.48
2019-01-24T00:35:42.060Z,949.48
2019-01-24T00:36:42.051Z,949.56
2019-01-24T00:37:42.042Z,949.52
2019-01-24T00:38:42.060Z,949.57
2019-01-24T00:39:42.021Z,949.57
2019-01-24T00:40:42.019Z,949.52
2019-01-24T00:41:41.995Z,949.55
2019-01-24T00:42:42.006Z,949.60
2019-01-24T00:43:41.973Z,949.58
2019-01-24T00:44:41.981Z,949.59
2019-01-24T00:45:41.954Z,949.66
2019-01-24T00:46:41.944Z,949.64
2019-01-24T00:47:41.952Z,949.69
2019-01-24T00:48:43.292Z,949.71
2019-01-24T00:49:41.910Z,949.76
2019-01-24T00:50:41.930Z,949.74
2019-01-24T00:51:41.884Z,949.72
2019-01-24T00:52:41.881Z,949.75
2019-01-24T00:53:41.872Z,949.78
2019-01-24T00:54:41.852Z,949.84
2019-01-24T00:55:41.847Z,949.82
2019-01-24T00:56:41.857Z,949.83
2019-01-24T00:57:41.834Z,949.91
2019-01-24T00:58:41.814Z,949.90
2019-01-24T00:59:41.802Z,949.96
2019-01-24T01:00:41.792Z,949.88
2019-01-24T01:01:41.776Z,949.95
2019-01-24T01:02:41.815Z,949.91
2019-01-24T01:03:41.760Z,949.92
2019-01-24T01:04:41.746Z,949.95
2019-01-24T01:05:41.737Z,949.94
2019-01-24T01:06:41.725Z,949.94
2019-01-24T01:07:41.724Z,950.01
2019-01-24T01:08:41.721Z,950.11
2019-01-24T01:09:41.699Z,950.06
2019-01-24T01:10:41.685Z,950.06
2019-01-24T01:11:41.671Z,950.03
2019-01-24T01:12:41.662Z,950.09
2019-01-24T01:13:41.653Z,950.04
2019-01-24T01:14:41.663Z,950.06
2019-01-24T01:15:41.630Z,950.11
2019-01-24T01:16:41.614Z,950.09
2019-01-24T01:17:41.601Z,950.07
2019-01-24T01:18:41.609Z,950.11
2019-01-24T01:19:41.578Z,950.20
2019-01-24T01:20:41.602Z,950.15
2019-01-24T01:21:41.560Z,950.15
2019-01-24T01:22:41.553Z,950.13
2019-01-24T01:23:41.550Z,950.16
2019-01-24T01:24:41.528Z,950.15
2019-01-24T01:25:41.517Z,950.19
2019-01-24T01:26:41.523Z,950.16
2019-01-24T01:27:41.495Z,950.23
2019-01-24T01:28:41.481Z,950.26
2019-01-24T01:29:41.498Z,950.22
2019-01-24T01:30:41.458Z,950.24
2019-01-24T01:31:41.446Z,950.25
2019-01-24T01:32:41.459Z,950.26
2019-01-24T01:33:41.424Z,950.22
2019-01-24T01:34:41.423Z,950.28
2019-01-24T01:35:41.403Z,950.25
2019-01-24T01:36:41.391Z,950.25
2019-01-24T01:37:41.387Z,950.29
2019-01-24T01:38:41.408Z,950.36
2019-01-24T01:39:41.382Z,950.42
2019-01-24T01:40:41.351Z,950.36
2019-01-24T01:41:41.347Z,950.35
2019-01-24T01:42:41.327Z,950.32
2019-01-24T01:43:41.322Z,950.35
2019-01-24T01:44:41.308Z,950.35
2019-01-24T01:45:41.303Z,950.31
2019-01-24T01:46:41.301Z,950.33
2019-01-24T01:47:41.278Z,950.28
2019-01-24T01:48:41.260Z,950.28
2019-01-24T01:49:41.252Z,950.36
2019-01-24T01:50:41.245Z,950.29
2019-01-24T01:51:41.235Z,950.33
2019-01-24T01:52:41.241Z,950.36
2019-01-24T01:53:41.210Z,950.31
2019-01-24T01:54:41.202Z,950.33
2019-01-24T01:55:41.209Z,950.41
2019-01-24T01:56:41.175Z,950.38
2019-01-24T01:57:41.164Z,950.41
2019-01-24T01:58:41.174Z,950.43
2019-01-24T01:59:41.141Z,950.42
2019-01-24T02:00:41.131Z,950.43
2019-01-24T02:01:41.134Z,950.43
2019-01-24T02:02:41.110Z,950.45
2019-01-24T02:03:41.097Z,950.48
2019-01-24T02:04:42.968Z,950.53
2019-01-24T02:05:41.076Z,950.48
2019-01-24T02:06:41.073Z,950.57
2019-01-24T02:07:41.058Z,950.58
2019-01-24T02:08:41.044Z,950.56
2019-01-24T02:09:41.032Z,950.56
2019-01-24T02:10:41.040Z,950.55
2019-01-24T02:11:41.032Z,950.55
2019-01-24T02:12:41.003Z,950.54
2019-01-24T02:13:40.987Z,950.55
2019-01-24T02:14:40.976Z,950.53
2019-01-24T02:15:40.964Z,950.50
2019-01-24T02:16:40.979Z,950.53
2019-01-24T02:17:40.962Z,950.58
2019-01-24T02:18:40.934Z,950.60
2019-01-24T02:19:40.927Z,950.55
2019-01-24T02:20:40.915Z,950.64
2019-01-24T02:21:40.902Z,950.61
2019-01-24T02:22:40.926Z,950.60
2019-01-24T02:23:40.880Z,950.53
2019-01-24T02:24:40.890Z,950.61
2019-01-24T02:25:40.859Z,950.63
2019-01-24T02:26:40.847Z,950.59
2019-01-24T02:27:40.833Z,950.59
2019-01-24T02:28:40.840Z,950.52
2019-01-24T02:29:40.871Z,950.54
2019-01-24T02:30:40.805Z,950.54
2019-01-24T02:31:40.793Z,950.54
2019-01-24T02:32:40.782Z,950.61
2019-01-24T02:33:40.779Z,950.58
2019-01-24T02:34:40.771Z,950.57
2019-01-24T02:35:40.867Z,950.59
2019-01-24T02:36:40.746Z,950.59
2019-01-24T02:37:40.727Z,950.58
2019-01-24T02:38:40.717Z,950.64
2019-01-24T02:39:40.716Z,950.61
2019-01-24T02:40:40.695Z,950.66
2019-01-24T02:41:40.725Z,950.70
2019-01-24T02:42:40.679Z,950.67
2019-01-24T02:43:40.681Z,950.66
2019-01-24T02:44:40.672Z,950.71
2019-01-24T02:45:40.645Z,950.67
2019-01-24T02:46:40.636Z,950.73
2019-01-24T02:47:40.641Z,950.72
2019-01-24T02:48:40.608Z,950.67
2019-01-24T02:49:40.604Z,950.70
2019-01-24T02:50:40.593Z,950.70
2019-01-24T02:51:40.576Z,950.70
2019-01-24T02:52:40.571Z,950.69
2019-01-24T02:53:40.577Z,950.66
2019-01-24T02:54:40.545Z,950.67
2019-01-24T02:55:40.536Z,950.69
2019-01-24T02:56:40.521Z,950.71
2019-01-24T02:57:40.512Z,950.73
2019-01-24T02:58:40.512Z,950.76
2019-01-24T02:59:40.517Z,950.77
2019-01-24T03:00:40.491Z,950.79
2019-01-24T03:01:40.468Z,950.81
2019-01-24T03:02:40.454Z,950.83
2019-01-24T03:03:40.443Z,950.83
2019-01-24T03:04:40.434Z,950.83
2019-01-24T03:05:40.422Z,950.82
2019-01-24T03:06:40.445Z,950.83
2019-01-24T03:07:40.401Z,950.84
2019-01-24T03:08:40.390Z,950.85
2019-01-24T03:09:40.376Z,950.89
2019-01-24T03:10:40.370Z,950.86
2019-01-24T03:11:40.359Z,950.93
2019-01-24T03:12:40.371Z,950.96
2019-01-24T03:13:40.341Z,950.98
2019-01-24T03:14:40.326Z,950.96
2019-01-24T03:15:40.313Z,951.00
2019-01-24T03:16:40.314Z,950.99
2019-01-24T03:17:40.293Z,951.02
2019-01-24T03:18:40.306Z,951.04
2019-01-24T03:19:40.269Z,951.10
2019-01-24T03:20:40.256Z,951.08
2019-01-24T03:21:40.247Z,951.02
2019-01-24T03:22:40.248Z,951.09
2019-01-24T03:23:40.225Z,951.08
2019-01-24T03:24:40.247Z,951.12
2019-01-24T03:25:40.202Z,951.13
2019-01-24T03:26:40.190Z,951.12
2019-01-24T03:27:40.186Z,951.18
2019-01-24T03:28:40.168Z,951.16
2019-01-24T03:29:40.159Z,951.20
2019-01-24T03:30:40.179Z,951.24
2019-01-24T03:31:40.146Z,951.16
2019-01-24T03:32:40.155Z,951.19
2019-01-24T03:33:40.120Z,951.22
2019-01-24T03:34:40.114Z,951.19
2019-01-24T03:35:40.095Z,951.18
2019-01-24T03:36:40.105Z,951.25
2019-01-24T03:37:40.089Z,951.22
2019-01-24T03:38:40.066Z,951.24
2019-01-24T03:39:40.061Z,951.26
2019-01-24T03:40:40.040Z,951.28
2019-01-24T03:41:40.076Z,951.28
2019-01-24T03:42:40.043Z,951.30
2019-01-24T03:43:40.014Z,951.28
2019-01-24T03:44:39.997Z,951.34
2019-01-24T03:45:40.012Z,951.30
2019-01-24T03:46:39.975Z,951.25
2019-01-24T03:47:40.050Z,951.28
2019-01-24T03:48:39.997Z,951.29
2019-01-24T03:49:39.946Z,951.30
2019-01-24T03:50:39.932Z,951.25
2019-01-24T03:51:39.927Z,951.25
2019-01-24T03:52:39.911Z,951.29
2019-01-24T03:53:39.897Z,951.29
2019-01-24T03:54:39.930Z,951.28
2019-01-24T03:55:39.877Z,951.34
2019-01-24T03:56:39.865Z,951.31
2019-01-24T03:57:39.884Z,951.35
2019-01-24T03:58:39.844Z,951.39
2019-01-24T03:59:39.845Z,951.41
2019-01-24T04:00:39.841Z,951.46
2019-01-24T04:01:39.813Z,951.44
2019-01-24T04:02:39.800Z,951.49
2019-01-24T04:03:39.787Z,951.44
2019-01-24T04:04:39.795Z,951.50
2019-01-24T04:05:39.788Z,951.53
2019-01-24T04:06:39.762Z,951.56
2019-01-24T04:07:39.749Z,951.53
2019-01-24T04:08:39.741Z,951.57
2019-01-24T04:09:39.725Z,951.59
2019-01-24T04:10:39.716Z,951.60
2019-01-24T04:11:39.722Z,951.59
2019-01-24T04:12:39.691Z,951.59
2019-01-24T04:13:39.682Z,951.52
2019-01-24T04:14:39.670Z,951.54
2019-01-24T04:15:39.666Z,951.59
2019-01-24T04:16:39.647Z,951.55
2019-01-24T04:17:39.669Z,951.59
2019-01-24T04:18:39.627Z,951.61
2019-01-24T04:19:39.616Z,951.59
2019-01-24T04:20:39.621Z,951.69
2019-01-24T04:21:39.594Z,951.66
2019-01-24T04:22:39.590Z,951.69
2019-01-24T04:23:39.602Z,951.70
2019-01-24T04:24:39.560Z,951.73
2019-01-24T04:25:39.566Z,951.70
2019-01-24T04:26:39.544Z,951.72
2019-01-24T04:27:39.534Z,951.69
2019-01-24T04:28:39.519Z,951.68
2019-01-24T04:29:39.535Z,951.73
2019-01-24T04:30:39.494Z,951.68
2019-01-24T04:31:39.494Z,951.77
2019-01-24T04:32:39.475Z,951.81
2019-01-24T04:33:39.468Z,951.80
2019-01-24T04:34:39.453Z,951.79
2019-01-24T04:35:39.484Z,951.80
2019-01-24T04:36:39.447Z,951.77
2019-01-24T04:37:39.423Z,951.82
2019-01-24T04:38:39.409Z,951.84
2019-01-24T04:39:39.401Z,951.82
2019-01-24T04:40:39.387Z,951.82
2019-01-24T04:41:39.402Z,951.81
2019-01-24T04:42:39.368Z,951.85
2019-01-24T04:43:39.363Z,951.83
2019-01-24T04:44:39.343Z,951.83
2019-01-24T04:45:39.335Z,951.83
2019-01-24T04:46:39.321Z,951.88
2019-01-24T04:47:39.335Z,951.91
2019-01-24T04:48:39.302Z,951.89
2019-01-24T04:49:39.289Z,951.83
2019-01-24T04:50:39.283Z,951.90
2019-01-24T04:51:39.271Z,951.87
2019-01-24T04:52:39.269Z,951.84
2019-01-24T04:53:39.271Z,951.91
2019-01-24T04:54:39.232Z,951.95
2019-01-24T04:55:39.221Z,951.95
2019-01-24T04:56:39.214Z,951.93
2019-01-24T04:57:39.200Z,951.99
2019-01-24T04:58:39.201Z,952.02
2019-01-24T04:59:39.207Z,951.97
2019-01-24T05:00:39.169Z,952.01
2019-01-24T05:01:39.156Z,952.01
2019-01-24T05:02:39.145Z,952.01
2019-01-24T05:03:39.143Z,952.04
2019-01-24T05:04:39.122Z,952.00
2019-01-24T05:05:39.155Z,952.05
2019-01-24T05:06:39.100Z,952.09
2019-01-24T05:07:39.088Z,952.05
2019-01-24T05:08:39.105Z,952.14
2019-01-24T05:09:39.072Z,952.17
2019-01-24T05:10:39.109Z,952.10
2019-01-24T05:11:39.063Z,952.17
2019-01-24T05:12:39.063Z,952.19
2019-01-24T05:13:39.025Z,952.18
2019-01-24T05:14:39.026Z,952.19
2019-01-24T05:15:39.005Z,952.15
2019-01-24T05:16:38.990Z,952.19
2019-01-24T05:17:38.980Z,952.19
2019-01-24T05:18:38.996Z,952.21
2019-01-24T05:19:38.982Z,952.21
2019-01-24T05:20:38.950Z,952.21
2019-01-24T05:21:38.940Z,952.27
2019-01-24T05:22:38.926Z,952.22
2019-01-24T05:23:38.917Z,952.20
2019-01-24T05:24:38.933Z,952.26
2019-01-24T05:25:38.901Z,952.30
2019-01-24T05:26:38.882Z,952.26
2019-01-24T05:27:38.894Z,952.33
2019-01-24T05:28:38.865Z,952.32
2019-01-24T05:29:38.850Z,952.39
2019-01-24T05:30:38.870Z,952.37
2019-01-24T05:31:38.828Z,952.38
2019-01-24T05:32:38.819Z,952.34
2019-01-24T05:33:38.808Z,952.42
2019-01-24T05:34:38.792Z,952.37
2019-01-24T05:35:38.811Z,952.36
2019-01-24T05:36:38.773Z,952.44
2019-01-24T05:37:38.763Z,952.44
2019-01-24T05:38:38.750Z,952.47
2019-01-24T05:39:38.738Z,952.51
2019-01-24T05:40:38.729Z,952.48
2019-01-24T05:41:38.758Z,952.47
2019-01-24T05:42:38.706Z,952.41
2019-01-24T05:43:38.698Z,952.45
2019-01-24T05:44:38.686Z,952.48
2019-01-24T05:45:38.676Z,952.47
2019-01-24T05:46:38.668Z,952.50
2019-01-24T05:47:38.676Z,952.53
2019-01-24T05:48:38.639Z,952.53
2019-01-24T05:49:38.628Z,952.61
2019-01-24T05:50:38.624Z,952.61
2019-01-24T05:51:38.630Z,952.61
2019-01-24T05:52:38.598Z,952.67
2019-01-24T05:53:38.598Z,952.66
2019-01-24T05:54:38.573Z,952.63
2019-01-24T05:55:38.564Z,952.68
2019-01-24T05:56:38.559Z,952.61
2019-01-24T05:57:38.550Z,952.61
2019-01-24T05:58:38.532Z,952.66
2019-01-24T05:59:38.532Z,952.67
2019-01-24T06:00:38.526Z,952.66
2019-01-24T06:01:38.496Z,952.66
2019-01-24T06:02:38.493Z,952.68
2019-01-24T06:03:38.476Z,952.71
2019-01-24T06:04:38.496Z,952.69
2019-01-24T06:05:41.945Z,952.70
2019-01-24T06:06:38.460Z,952.68
2019-01-24T06:07:38.454Z,952.69
2019-01-24T06:08:38.425Z,952.73
2019-01-24T06:09:38.414Z,952.74
2019-01-24T06:10:38.398Z,952.76
2019-01-24T06:11:38.390Z,952.82
2019-01-24T06:12:38.401Z,952.84
2019-01-24T06:13:38.375Z,952.78
2019-01-24T06:14:38.359Z,952.79
2019-01-24T06:15:38.349Z,952.84
2019-01-24T06:16:38.345Z,952.86
2019-01-24T06:17:38.324Z,952.91
2019-01-24T06:18:38.317Z,952.93
2019-01-24T06:19:38.337Z,952.94
2019-01-24T06:20:38.291Z,952.95
2019-01-24T06:21:38.280Z,952.92
2019-01-24T06:22:38.277Z,952.95
2019-01-24T06:23:38.272Z,952.92
2019-01-24T06:24:38.252Z,952.97
2019-01-24T06:25:38.237Z,952.95
2019-01-24T06:26:38.259Z,952.97
2019-01-24T06:27:38.221Z,952.98
2019-01-24T06:28:38.224Z,953.04
2019-01-24T06:29:38.194Z,953.06
2019-01-24T06:30:38.186Z,953.00
2019-01-24T06:31:38.169Z,953.11
2019-01-24T06:32:38.205Z,953.10
2019-01-24T06:33:38.151Z,953.19
2019-01-24T06:34:38.145Z,953.15
2019-01-24T06:35:38.133Z,953.16
2019-01-24T06:36:38.118Z,953.10
2019-01-24T06:37:38.107Z,953.15
2019-01-24T06:38:38.123Z,953.22
2019-01-24T06:39:38.091Z,953.15
2019-01-24T06:40:38.079Z,953.15
2019-01-24T06:41:38.064Z,953.17
2019-01-24T06:42:38.049Z,953.19
2019-01-24T06:43:38.041Z,953.19
2019-01-24T06:44:38.060Z,953.18
2019-01-24T06:45:38.017Z,953.14
2019-01-24T06:46:38.011Z,953.19
2019-01-24T06:47:37.996Z,953.16
2019-01-24T06:48:37.988Z,953.21
2019-01-24T06:49:37.974Z,953.25
2019-01-24T06:50:37.989Z,953.22
2019-01-24T06:51:37.972Z,953.22
2019-01-24T06:52:37.942Z,953.24
2019-01-24T06:53:37.934Z,953.26
2019-01-24T06:54:37.918Z,953.25
2019-01-24T06:55:37.910Z,953.24
2019-01-24T06:56:37.912Z,953.30
2019-01-24T06:57:37.898Z,953.29
2019-01-24T06:58:37.875Z,953.28
2019-01-24T06:59:38.811Z,953.32
2019-01-24T07:00:37.860Z,953.34
2019-01-24T07:01:37.844Z,953.33
2019-01-24T07:02:37.846Z,953.31
2019-01-24T07:03:37.831Z,953.32
2019-01-24T07:04:37.818Z,953.32
2019-01-24T07:05:37.802Z,953.31
2019-01-24T07:06:37.793Z,953.34
2019-01-24T07:07:38.011Z,953.34
2019-01-24T07:08:37.770Z,953.34
2019-01-24T07:09:37.770Z,953.41
2019-01-24T07:10:37.743Z,953.38
2019-01-24T07:11:37.735Z,953.39
2019-01-24T07:12:37.723Z,953.39
2019-01-24T07:13:37.721Z,953.43
2019-01-24T07:14:37.700Z,953.47
2019-01-24T07:15:37.699Z,953.46
2019-01-24T07:16:37.681Z,953.51
2019-01-24T07:17:37.731Z,953.51
2019-01-24T07:18:37.656Z,953.53
2019-01-24T07:19:37.645Z,953.55
2019-01-24T07:20:37.636Z,953.57
2019-01-24T07:21:37.634Z,953.60
2019-01-24T07:22:37.620Z,953.56
2019-01-24T07:23:37.613Z,953.58
2019-01-24T07:24:37.593Z,953.67
2019-01-24T07:25:37.590Z,953.70
2019-01-24T07:26:37.570Z,953.72
2019-01-24T07:27:37.577Z,953.73
2019-01-24T07:28:37.553Z,953.73
2019-01-24T07:29:37.542Z,953.72
2019-01-24T07:30:37.529Z,953.73
2019-01-24T07:31:37.519Z,953.77
2019-01-24T07:32:37.507Z,953.74
2019-01-24T07:33:37.540Z,953.75
2019-01-24T07:34:37.490Z,953.78
2019-01-24T07:35:37.473Z,953.78
2019-01-24T07:36:37.462Z,953.74
2019-01-24T07:37:37.453Z,953.81
2019-01-24T07:38:37.445Z,953.75
2019-01-24T07:39:37.467Z,953.77
2019-01-24T07:40:37.418Z,953.79
2019-01-24T07:41:37.410Z,953.81
2019-01-24T07:42:37.400Z,953.76
2019-01-24T07:43:37.398Z,953.78
2019-01-24T07:44:37.380Z,953.82
2019-01-24T07:45:37.375Z,953.76
2019-01-24T07:46:37.351Z,953.76
2019-01-24T07:47:37.345Z,953.74
2019-01-24T07:48:37.337Z,953.75
2019-01-24T07:49:37.360Z,953.78
2019-01-24T07:50:37.314Z,953.77
2019-01-24T07:51:37.305Z,953.78
2019-01-24T07:52:37.293Z,953.73
2019-01-24T07:53:37.286Z,953.76
2019-01-24T07:54:37.267Z,953.75
2019-01-24T07:55:37.266Z,953.79
2019-01-24T07:56:37.244Z,953.77
2019-01-24T07:57:37.240Z,953.77
2019-01-24T07:58:37.249Z,953.83
2019-01-24T07:59:37.223Z,953.83
2019-01-24T08:00:37.199Z,953.80
2019-01-24T08:01:37.193Z,953.84
2019-01-24T08:02:37.179Z,953.86
2019-01-24T08:03:37.209Z,953.81
2019-01-24T08:04:37.158Z,953.82
2019-01-24T08:05:37.939Z,953.87
2019-01-24T08:06:37.138Z,953.87
2019-01-24T08:07:37.125Z,953.86
2019-01-24T08:08:37.111Z,953.91
2019-01-24T08:09:37.133Z,953.88
2019-01-24T08:10:37.094Z,953.96
2019-01-24T08:11:37.087Z,954.03
2019-01-24T08:12:37.068Z,954.02
2019-01-24T08:13:37.073Z,954.04
2019-01-24T08:14:37.047Z,954.01
2019-01-24T08:15:37.065Z,954.00
2019-01-24T08:16:37.032Z,954.04
2019-01-24T08:17:37.016Z,954.07
2019-01-24T08:18:37.021Z,954.09
2019-01-24T08:19:36.998Z,954.07
2019-01-24T08:20:36.980Z,954.09
2019-01-24T08:21:36.977Z,954.08
2019-01-24T08:22:36.997Z,954.11
2019-01-24T08:23:36.980Z,954.10
2019-01-24T08:24:36.938Z,954.13
2019-01-24T08:25:36.927Z,954.12
2019-01-24T08:26:36.918Z,954.16
2019-01-24T08:27:36.922Z,954.14
2019-01-24T08:28:36.907Z,954.16
2019-01-24T08:29:36.886Z,954.09
2019-01-24T08:30:36.872Z,954.20
2019-01-24T08:31:36.860Z,954.17
2019-01-24T08:32:38.189Z,954.23
2019-01-24T08:33:36.860Z,954.20
2019-01-24T08:34:36.839Z,954.22
2019-01-24T08:35:36.818Z,954.24
2019-01-24T08:36:36.810Z,954.20
2019-01-24T08:37:36.796Z,954.15
2019-01-24T08:38:36.784Z,954.17
2019-01-24T08:39:36.810Z,954.17
2019-01-24T08:40:36.794Z,954.24
2019-01-24T08:41:36.749Z,954.18
2019-01-24T08:42:36.753Z,954.18
2019-01-24T08:43:36.725Z,954.17
2019-01-24T08:44:36.720Z,954.22
2019-01-24T08:45:36.713Z,954.24
2019-01-24T08:46:36.723Z,954.18
2019-01-24T08:47:36.685Z,954.16
2019-01-24T08:48:36.673Z,954.22
2019-01-24T08:49:36.659Z,954.21
2019-01-24T08:50:36.659Z,954.24
2019-01-24T08:51:36.637Z,954.23
2019-01-24T08:52:36.631Z,954.20
2019-01-24T08:53:36.635Z,954.21
2019-01-24T08:54:36.612Z,954.23
2019-01-24T08:55:36.616Z,954.22
2019-01-24T08:56:36.586Z,954.23
2019-01-24T08:57:36.575Z,954.22
2019-01-24T08:58:36.560Z,954.20
2019-01-24T08:59:36.575Z,954.25
2019-01-24T09:00:36.567Z,954.21
2019-01-24T09:01:36.550Z,954.21
2019-01-24T09:02:36.534Z,954.27
2019-01-24T09:03:36.547Z,954.29
2019-01-24T09:04:36.499Z,954.34
2019-01-24T09:05:36.484Z,954.31
2019-01-24T09:06:36.488Z,954.32
2019-01-24T09:07:36.509Z,954.32
2019-01-24T09:08:36.456Z,954.29
2019-01-24T09:09:36.442Z,954.30
2019-01-24T09:10:36.433Z,954.34
2019-01-24T09:11:36.438Z,954.33
2019-01-24T09:12:36.411Z,954.36
2019-01-24T09:13:36.402Z,954.35
2019-01-24T09:14:36.399Z,954.34
2019-01-24T09:15:36.390Z,954.41
2019-01-24T09:16:36.366Z,954.36
2019-01-24T09:17:36.362Z,954.40
2019-01-24T09:18:36.402Z,954.44
2019-01-24T09:19:36.335Z,954.43
2019-01-24T09:20:36.400Z,954.44
2019-01-24T09:21:36.310Z,954.48
2019-01-24T09:22:36.341Z,954.50
2019-01-24T09:23:36.304Z,954.50
2019-01-24T09:24:36.278Z,954.49
2019-01-24T09:25:36.318Z,954.54
2019-01-24T09:26:36.268Z,954.51
2019-01-24T09:27:36.279Z,954.52
2019-01-24T09:28:36.278Z,954.52
2019-01-24T09:29:36.223Z,954.54
2019-01-24T09:30:36.222Z,954.53
2019-01-24T09:31:36.202Z,954.56
2019-01-24T09:32:36.191Z,954.52
2019-01-24T09:33:36.207Z,954.52
2019-01-24T09:34:36.170Z,954.55
2019-01-24T09:35:36.200Z,954.61
2019-01-24T09:36:36.149Z,954.64
2019-01-24T09:37:36.134Z,954.62
2019-01-24T09:38:36.144Z,954.68
2019-01-24T09:39:36.114Z,954.66
2019-01-24T09:40:36.104Z,954.71
2019-01-24T09:41:36.103Z,954.76
2019-01-24T09:42:36.089Z,954.67
2019-01-24T09:43:36.071Z,954.65
2019-01-24T09:44:36.081Z,954.71
2019-01-24T09:45:36.077Z,954.76
2019-01-24T09:46:36.054Z,954.78
2019-01-24T09:47:36.027Z,954.71
2019-01-24T09:48:37.360Z,954.82
2019-01-24T09:49:36.100Z,954.79
2019-01-24T09:50:36.017Z,954.79
2019-01-24T09:51:36.007Z,954.79
2019-01-24T09:52:35.971Z,954.77
2019-01-24T09:53:35.962Z,954.72
2019-01-24T09:54:35.952Z,954.77
2019-01-24T09:55:35.953Z,954.75
2019-01-24T09:56:35.928Z,954.79
2019-01-24T09:57:35.936Z,954.80
2019-01-24T09:58:35.909Z,954.81
2019-01-24T09:59:35.917Z,954.79
2019-01-24T10:00:35.916Z,954.82
2019-01-24T10:01:35.899Z,954.80
2019-01-24T10:02:35.886Z,954.76
2019-01-24T10:03:35.857Z,954.83
2019-01-24T10:04:35.855Z,954.81
2019-01-24T10:05:35.869Z,954.80
2019-01-24T10:06:36.437Z,954.82
2019-01-24T10:07:35.822Z,954.77
2019-01-24T10:08:35.812Z,954.78
2019-01-24T10:09:35.794Z,954.84
2019-01-24T10:10:35.806Z,954.80
2019-01-24T10:11:35.819Z,954.82
2019-01-24T10:12:36.300Z,954.84
2019-01-24T10:13:35.751Z,954.84
2019-01-24T10:14:35.733Z,954.87
2019-01-24T10:15:35.773Z,954.91
2019-01-24T10:16:35.731Z,954.85
2019-01-24T10:17:35.709Z,954.86
2019-01-24T10:18:35.718Z,954.89
2019-01-24T10:19:35.689Z,954.92
2019-01-24T10:20:35.707Z,954.83
2019-01-24T10:21:35.721Z,954.80
2019-01-24T10:22:35.674Z,954.81
2019-01-24T10:23:35.699Z,954.81
2019-01-24T10:24:35.643Z,954.80
2019-01-24T10:25:35.622Z,954.75
2019-01-24T10:26:35.619Z,954.74
2019-01-24T10:27:35.660Z,954.74
2019-01-24T10:28:35.590Z,954.77
2019-01-24T10:29:35.577Z,954.82
2019-01-24T10:30:42.393Z,954.85
2019-01-24T10:31:36.563Z,954.79
2019-01-24T10:32:35.573Z,954.76
2019-01-24T10:33:35.532Z,954.81
2019-01-24T10:34:35.542Z,954.87
2019-01-24T10:35:35.517Z,954.81
2019-01-24T10:36:35.502Z,954.85
2019-01-24T10:37:35.495Z,954.79
2019-01-24T10:38:35.474Z,954.85
2019-01-24T10:39:35.534Z,954.83
2019-01-24T10:40:35.465Z,954.86
2019-01-24T10:41:35.445Z,954.94
2019-01-24T10:42:35.464Z,954.89
2019-01-24T10:43:35.437Z,954.82
2019-01-24T10:44:35.417Z,954.86
2019-01-24T10:45:35.409Z,954.80
2019-01-24T10:46:35.389Z,954.79
2019-01-24T10:47:35.400Z,954.73
2019-01-24T10:48:35.399Z,954.72
2019-01-24T10:49:35.356Z,954.77
2019-01-24T10:50:35.348Z,954.78
2019-01-24T10:51:35.341Z,954.76
2019-01-24T10:52:35.328Z,954.78
2019-01-24T10:53:35.313Z,954.87
2019-01-24T10:54:35.353Z,954.83
2019-01-24T10:55:35.305Z,954.83
2019-01-24T10:56:35.358Z,954.92
2019-01-24T10:57:35.274Z,954.93
2019-01-24T10:58:35.264Z,954.93
2019-01-24T10:59:35.266Z,954.87
2019-01-24T11:00:35.256Z,954.86
2019-01-24T11:01:35.237Z,954.87
2019-01-24T11:02:35.230Z,954.88
2019-01-24T11:03:35.219Z,954.86
2019-01-24T11:04:35.197Z,954.88
2019-01-24T11:05:35.215Z,954.89
2019-01-24T11:06:35.176Z,954.86
2019-01-24T11:07:35.163Z,954.87
2019-01-24T11:08:35.187Z,954.85
2019-01-24T11:09:35.139Z,954.88
2019-01-24T11:10:35.129Z,954.85
2019-01-24T11:11:35.118Z,954.88
2019-01-24T11:12:35.119Z,954.86
2019-01-24T11:13:35.110Z,954.84
2019-01-24T11:14:35.085Z,954.86
2019-01-24T11:15:35.539Z,954.83
2019-01-24T11:16:35.086Z,954.81
2019-01-24T11:17:35.110Z,954.81
2019-01-24T11:18:35.068Z,954.82
2019-01-24T11:19:35.048Z,954.85
2019-01-24T11:20:35.020Z,954.86
2019-01-24T11:21:35.022Z,954.89
2019-01-24T11:22:35.027Z,954.88
2019-01-24T11:23:35.008Z,954.83
2019-01-24T11:24:34.982Z,954.86
2019-01-24T11:25:34.972Z,954.86
2019-01-24T11:26:34.950Z,954.80
2019-01-24T11:27:34.961Z,954.77
2019-01-24T11:28:34.989Z,954.81
2019-01-24T11:29:34.945Z,954.79
2019-01-24T11:30:34.944Z,954.78
2019-01-24T11:31:34.902Z,954.84
2019-01-24T11:32:34.885Z,954.80
2019-01-24T11:33:34.897Z,954.81
2019-01-24T11:34:34.871Z,954.79
2019-01-24T11:35:34.860Z,954.81
2019-01-24T11:36:34.849Z,954.80
2019-01-24T11:37:34.833Z,954.84
2019-01-24T11:38:34.873Z,954.82
2019-01-24T11:39:34.830Z,954.82
2019-01-24T11:40:34.804Z,954.81
2019-01-24T11:41:34.793Z,954.85
2019-01-24T11:42:34.789Z,954.89
2019-01-24T11:43:34.793Z,954.83
2019-01-24T11:44:36.125Z,954.92
2019-01-24T11:45:34.771Z,954.91
2019-01-24T11:46:34.732Z,954.88
2019-01-24T11:47:34.725Z,954.92
2019-01-24T11:48:34.718Z,954.92
2019-01-24T11:49:34.705Z,954.85
2019-01-24T11:50:34.702Z,954.90
2019-01-24T11:51:34.687Z,954.85
2019-01-24T11:52:34.687Z,954.81
2019-01-24T11:53:34.666Z,954.82
2019-01-24T11:54:34.643Z,954.82
2019-01-24T11:55:34.642Z,954.77
2019-01-24T11:56:34.623Z,954.85
2019-01-24T11:57:34.614Z,954.81
2019-01-24T11:58:34.599Z,954.79
2019-01-24T11:59:34.622Z,954.83
2019-01-24T12:00:34.623Z,954.80
2019-01-24T12:01:34.572Z,954.85
2019-01-24T12:02:39.668Z,954.83
2019-01-24T12:03:35.551Z,954.85
2019-01-24T12:04:34.533Z,954.78
2019-01-24T12:05:34.535Z,954.79
2019-01-24T12:06:34.533Z,954.75
2019-01-24T12:07:34.501Z,954.72
2019-01-24T12:08:34.517Z,954.74
2019-01-24T12:09:34.492Z,954.81
2019-01-24T12:10:34.475Z,954.81
2019-01-24T12:11:34.483Z,954.80
2019-01-24T12:12:34.450Z,954.75
2019-01-24T12:13:34.437Z,954.79
2019-01-24T12:14:34.437Z,954.78
2019-01-24T12:15:34.451Z,954.77
2019-01-24T12:16:34.413Z,954.81
2019-01-24T12:17:34.393Z,954.83
2019-01-24T12:18:34.397Z,954.76
2019-01-24T12:19:34.373Z,954.77
2019-01-24T12:20:34.369Z,954.76
2019-01-24T12:21:34.356Z,954.73
2019-01-24T12:22:34.364Z,954.74
2019-01-24T12:23:34.357Z,954.75
2019-01-24T12:24:34.335Z,954.73
2019-01-24T12:25:34.332Z,954.69
2019-01-24T12:26:34.337Z,954.76
2019-01-24T12:27:34.336Z,954.76
2019-01-24T12:28:34.355Z,954.70